Coldwater, MI (49036)

1:35 PM EDT on March 31, 2015 (GMT -0400)
Coldwater Airport Subdivision | | Change Station
CLOSE
Current Station
Personal Weather Station
Location: Coldwater, MI
Elevation: 965 ft
Nearby Weather Stations

Elev 965 ft 41.94 °N, 85.05 °W | Updated 6 seconds ago

Overcast
Overcast
42.8 °F
Feels Like 43 °F
N
1.8
Wind Variable Wind from NE
Gusts 2.5 mph

Today
High -- | Low -- °F
--% Chance of Precip.
Yesterday
High -- | Low -- °F
Precip. -- in
7:24 AM 8:04 PM
Waxing Gibbous, 88% visible
Pressure 29.88 in
Visibility 10.0 miles
Clouds Mostly Cloudy 1100 ft
Overcast 1700 ft
Windchill 43 °F
Dew Point 36 °F
Humidity 77%
Rainfall 0.00 in
Snow Depth Not available.
UV 3.0 out of 12
Pollen 1.00 out of 12
Air Quality Not available.
Flu Activity Not available.
METAR KOEB 311714Z AUTO 36007KT 10SM BKN011 OVC017 05/02 A2988 RMK AO2 T00500017

More Conditions Fewer Conditions

Pressure 29.88 in
Visibility 10.0 miles
Clouds Mostly Cloudy 1100 ft
Overcast 1700 ft
Windchill 43 °F
Dew Point 36 °F
Humidity 77%
Rainfall 0.00 in
Snow Depth Not available.
UV 3.0 out of 12
Pollen 1.00 out of 12
Air Quality Not available.
Flu Activity Not available.
METAR KOEB 311714Z AUTO 36007KT 10SM BKN011 OVC017 05/02 A2988 RMK AO2 T00500017

More Conditions Fewer Conditions

10-Day Weather Forecast

Almanac

Astronomy

Mar. 31, 2015 Rise Set
Actual Time
Civil Twilight
Nautical Twilight
Astronomical Twilight
Moon
Length of Visible Light
Length of Day
Tomorrow will be .
, % of the Moon is Illuminated

Today's Extremes

State Highs State Lows

Community

WunderPhotos

Upload Photos

1,809,787 photos uploaded!

WunderBlogs® & News

Nearby

Air Quality

  Air Quality AQ Index Pollutant
Not available.

Snow Depth

Station Depth Elevation

Earthquake Activity

City Distance Mag. Time & Date
Minimum magnitude displayed is 2.5.

Coastal Water Temperatures

Place Temperature

Stations

Nearby Weather Stations

Station Location Temp. Windchill Dew Point Humidity Wind Precip. Elev Updated Type